Time;durP1;ratioP1;P1;durP2;ratioP2;P2;SDS_P1;SDS_P2;PMS_P1;PMS_P2;Temp;Humidity;BMP_temperature;BMP_pressure;BME280_temperature;BME280_humidity;BME280_pressure;Samples;Min_cycle;Max_cycle;Signal;HPM_P1;HPM_P2
2020/12/09 00:01:17;;;;;;;16.80;7.30;;;3.30;94.50;;;;;;4861022;29;20057;-79
2020/12/09 00:03:43;;;;;;;19.23;9.27;;;3.30;94.80;;;;;;4824991;29;20041;-76
2020/12/09 00:06:10;;;;;;;16.70;7.47;;;3.20;94.50;;;;;;4830218;29;20409;-79
2020/12/09 00:08:38;;;;;;;18.37;8.80;;;3.10;94.50;;;;;;4845234;29;20045;-76
2020/12/09 00:11:07;;;;;;;15.77;7.03;;;3.10;94.50;;;;;;4830147;29;20050;-77
2020/12/09 00:13:35;;;;;;;15.40;6.13;;;3.00;94.60;;;;;;4847183;29;20527;-77
2020/12/09 00:16:02;;;;;;;13.57;6.03;;;3.00;94.60;;;;;;4843331;29;20110;-76
2020/12/09 00:18:28;;;;;;;14.07;6.03;;;3.00;94.60;;;;;;4812019;29;20046;-77
2020/12/09 00:20:55;;;;;;;13.20;5.70;;;3.00;94.60;;;;;;4791722;29;20416;-79
2020/12/09 00:23:22;;;;;;;10.60;5.00;;;3.00;94.60;;;;;;4806915;29;20050;-78
2020/12/09 00:25:48;;;;;;;10.73;5.40;;;2.90;94.90;;;;;;4797017;29;20075;-79
2020/12/09 00:28:15;;;;;;;9.20;5.03;;;2.90;94.70;;;;;;4833263;29;20046;-75
2020/12/09 00:30:42;;;;;;;9.80;4.60;;;2.90;94.70;;;;;;4811587;29;20050;-76
2020/12/09 00:33:11;;;;;;;9.40;3.63;;;2.90;94.70;;;;;;4827017;29;20110;-79
2020/12/09 00:35:38;;;;;;;7.67;3.50;;;3.00;94.70;;;;;;4813885;29;20106;-79
2020/12/09 00:38:07;;;;;;;7.90;3.90;;;3.00;94.60;;;;;;4820487;29;20054;-79
2020/12/09 00:40:34;;;;;;;8.60;3.80;;;2.90;94.60;;;;;;4835959;29;20042;-79
2020/12/09 00:43:05;;;;;;;7.67;3.60;;;2.90;94.60;;;;;;4808122;29;20568;-79
2020/12/09 00:45:31;;;;;;;8.33;5.10;;;2.80;94.50;;;;;;4816256;29;20074;-79
2020/12/09 00:47:58;;;;;;;5.87;3.23;;;2.80;94.60;;;;;;4834208;29;20046;-78
2020/12/09 00:52:59;;;;;;;7.97;3.20;;;2.70;94.60;;;;;;4826291;29;20046;-79
2020/12/09 00:55:26;;;;;;;7.10;3.07;;;2.70;94.60;;;;;;4822450;29;20162;-79
2020/12/09 00:57:53;;;;;;;7.70;3.60;;;2.60;94.60;;;;;;4826943;29;20056;-79
2020/12/09 01:00:20;;;;;;;7.67;3.07;;;2.60;94.60;;;;;;4826414;29;20052;-78
2020/12/09 01:02:53;;;;;;;5.70;2.47;;;2.60;94.70;;;;;;4808144;29;20056;-73
2020/12/09 01:05:21;;;;;;;5.97;3.13;;;2.60;94.60;;;;;;4809877;29;20046;-73
2020/12/09 01:07:48;;;;;;;6.57;3.60;;;2.60;94.60;;;;;;4824699;29;20122;-73
2020/12/09 01:10:15;;;;;;;7.70;2.83;;;2.50;94.60;;;;;;4841483;29;20787;-73
2020/12/09 01:12:42;;;;;;;6.20;2.77;;;2.50;94.60;;;;;;4849184;29;20049;-73
2020/12/09 01:15:09;;;;;;;7.50;3.17;;;2.40;94.60;;;;;;4858760;29;20047;-73
2020/12/09 01:17:36;;;;;;;7.27;3.67;;;2.40;94.60;;;;;;4860069;29;20068;-73
2020/12/09 01:20:04;;;;;;;6.77;2.50;;;2.40;94.60;;;;;;4843535;29;20541;-73
2020/12/09 01:22:36;;;;;;;6.13;3.23;;;2.30;94.60;;;;;;4859759;29;20486;-73
2020/12/09 01:25:04;;;;;;;5.30;2.53;;;2.30;94.60;;;;;;4860167;29;20069;-73
2020/12/09 01:27:30;;;;;;;6.30;2.80;;;2.20;94.60;;;;;;4860242;29;20083;-73
2020/12/09 01:29:57;;;;;;;5.63;3.00;;;2.20;94.60;;;;;;4860150;29;20037;-73
2020/12/09 01:32:23;;;;;;;6.17;2.90;;;2.20;94.70;;;;;;4860228;29;20045;-73
2020/12/09 01:34:50;;;;;;;7.10;3.27;;;2.20;94.70;;;;;;4860110;29;20050;-73
2020/12/09 01:37:18;;;;;;;5.63;2.73;;;2.20;94.70;;;;;;4850615;29;20053;-79
2020/12/09 01:39:44;;;;;;;6.00;2.90;;;2.20;94.70;;;;;;4829108;29;20080;-79
2020/12/09 01:42:10;;;;;;;6.30;2.90;;;2.20;94.70;;;;;;4844484;29;20073;-79
2020/12/09 01:44:37;;;;;;;6.63;3.30;;;2.20;94.70;;;;;;4858772;29;20406;-79
2020/12/09 01:47:05;;;;;;;6.00;2.93;;;2.20;94.70;;;;;;4833778;29;20124;-79
2020/12/09 01:49:33;;;;;;;8.57;3.10;;;2.20;94.70;;;;;;4844155;29;20486;-79
2020/12/09 01:52:02;;;;;;;6.80;3.27;;;2.20;94.70;;;;;;4831849;29;20124;-79
2020/12/09 01:54:30;;;;;;;7.17;3.30;;;2.20;94.70;;;;;;4844172;29;20041;-79
2020/12/09 01:57:11;;;;;;;6.93;2.50;;;2.20;94.70;;;;;;4829184;29;20050;-78
2020/12/09 01:59:39;;;;;;;5.70;2.80;;;2.20;94.70;;;;;;4829523;29;20520;-79
2020/12/09 02:02:07;;;;;;;5.50;2.57;;;2.20;94.70;;;;;;4863034;29;20455;-79
2020/12/09 02:04:37;;;;;;;5.47;2.73;;;2.20;94.70;;;;;;4840794;29;20468;-79
2020/12/09 02:07:04;;;;;;;6.70;2.90;;;2.20;94.70;;;;;;4848433;29;20073;-79
2020/12/09 02:09:42;;;;;;;4.67;1.97;;;2.20;94.70;;;;;;4832367;29;20042;-79
2020/12/09 02:12:20;;;;;;;6.37;2.73;;;2.20;94.70;;;;;;4811211;29;20073;-82
2020/12/09 02:14:46;;;;;;;5.10;2.17;;;2.20;94.70;;;;;;4825432;29;20449;-79
2020/12/09 02:17:14;;;;;;;6.73;2.87;;;2.10;94.70;;;;;;4825731;29;20050;-79
2020/12/09 02:19:41;;;;;;;5.83;2.60;;;2.10;94.70;;;;;;4810353;29;20455;-79
2020/12/09 02:22:14;;;;;;;5.83;2.60;;;2.10;94.70;;;;;;4809378;29;20202;-79
2020/12/09 02:24:40;;;;;;;7.10;2.80;;;2.10;94.70;;;;;;4810011;29;20097;-81
2020/12/09 02:27:10;;;;;;;5.23;2.40;;;2.00;94.60;;;;;;4810586;29;20057;-79
2020/12/09 02:29:36;;;;;;;6.77;3.00;;;2.00;94.60;;;;;;4825373;29;20050;-80
2020/12/09 02:32:03;;;;;;;6.50;2.23;;;2.00;94.60;;;;;;4825115;29;20133;-79
2020/12/09 02:34:29;;;;;;;5.43;2.63;;;1.90;94.60;;;;;;4810084;29;20050;-79
2020/12/09 02:36:56;;;;;;;6.53;2.40;;;1.90;94.50;;;;;;4817139;29;20054;-79
2020/12/09 02:39:34;;;;;;;6.93;3.17;;;1.80;94.50;;;;;;4810167;29;20532;-79
2020/12/09 02:42:01;;;;;;;7.93;4.10;;;1.80;94.60;;;;;;4811422;29;20089;-79
2020/12/09 02:44:28;;;;;;;7.60;2.90;;;1.80;94.60;;;;;;4847226;29;20046;-79
2020/12/09 02:46:57;;;;;;;9.83;4.37;;;1.80;94.60;;;;;;4847084;29;20030;-74
2020/12/09 02:49:24;;;;;;;6.20;3.20;;;1.70;94.60;;;;;;4831207;29;20132;-73
2020/12/09 02:51:51;;;;;;;7.83;3.47;;;1.70;94.70;;;;;;4855122;29;20549;-74
2020/12/09 02:54:18;;;;;;;7.97;3.93;;;1.70;94.70;;;;;;4846170;29;20049;-73
2020/12/09 02:56:45;;;;;;;6.30;2.93;;;1.70;94.70;;;;;;4862654;29;20049;-73
2020/12/09 02:59:11;;;;;;;9.67;3.77;;;1.70;94.70;;;;;;4862930;29;20053;-73
2020/12/09 03:01:38;;;;;;;8.87;3.37;;;1.80;94.70;;;;;;4862400;29;20099;-73
2020/12/09 03:04:05;;;;;;;7.47;3.17;;;1.80;94.70;;;;;;4863062;29;20049;-73
2020/12/09 03:06:32;;;;;;;8.00;3.73;;;1.90;94.70;;;;;;4862159;29;20046;-73
2020/12/09 03:08:58;;;;;;;8.10;3.57;;;1.90;94.70;;;;;;4860886;29;20494;-73
2020/12/09 03:11:25;;;;;;;8.17;3.57;;;2.00;95.00;;;;;;4845721;29;20045;-73
2020/12/09 03:13:52;;;;;;;8.90;4.37;;;2.00;94.80;;;;;;4826042;29;20054;-73
2020/12/09 03:16:18;;;;;;;8.90;4.20;;;2.10;94.70;;;;;;4843583;29;20551;-73
2020/12/09 03:18:45;;;;;;;9.93;3.90;;;2.10;94.70;;;;;;4844204;29;20048;-73
2020/12/09 03:21:12;;;;;;;8.90;3.87;;;2.20;94.70;;;;;;4843843;29;20054;-79
2020/12/09 03:23:39;;;;;;;9.73;4.10;;;2.20;94.70;;;;;;4843374;29;20056;-79
2020/12/09 03:26:05;;;;;;;9.80;4.53;;;2.30;94.80;;;;;;4800642;29;20503;-79
2020/12/09 03:28:35;;;;;;;11.63;5.10;;;2.30;94.70;;;;;;4828634;29;20566;-79
2020/12/09 03:31:03;;;;;;;8.30;4.33;;;2.40;95.00;;;;;;4828170;29;20049;-79
2020/12/09 03:33:30;;;;;;;9.60;4.50;;;2.40;94.70;;;;;;4843388;29;20495;-79
2020/12/09 03:35:57;;;;;;;8.47;3.87;;;2.50;94.70;;;;;;4828044;29;20084;-79
2020/12/09 03:38:23;;;;;;;11.40;4.87;;;2.50;94.60;;;;;;4798186;29;20082;-78
2020/12/09 03:40:50;;;;;;;11.50;5.13;;;2.50;94.50;;;;;;4797183;29;20057;-73
2020/12/09 03:43:17;;;;;;;12.57;4.57;;;2.50;94.50;;;;;;4843160;29;20488;-73
2020/12/09 03:45:43;;;;;;;11.23;4.33;;;2.60;94.60;;;;;;4812107;29;20046;-73
2020/12/09 03:48:10;;;;;;;9.73;4.47;;;2.60;94.60;;;;;;4843387;29;20034;-73
2020/12/09 03:50:37;;;;;;;7.60;3.93;;;2.70;94.60;;;;;;4842876;29;20120;-74
2020/12/09 03:53:04;;;;;;;9.60;4.17;;;2.70;94.60;;;;;;4842605;29;20062;-73
2020/12/09 03:55:30;;;;;;;8.90;4.20;;;2.80;94.60;;;;;;4842716;29;20042;-73
2020/12/09 03:58:00;;;;;;;9.17;4.10;;;2.80;94.60;;;;;;4842765;29;20045;-73
2020/12/09 04:00:27;;;;;;;8.80;3.97;;;2.80;94.60;;;;;;4842255;29;20046;-73
2020/12/09 04:02:54;;;;;;;9.50;4.17;;;2.90;94.50;;;;;;4831030;29;20043;-79
2020/12/09 04:05:22;;;;;;;10.30;4.50;;;2.90;94.50;;;;;;4827429;29;20455;-79
2020/12/09 04:07:48;;;;;;;8.30;3.40;;;2.90;94.40;;;;;;4827841;29;20165;-79
2020/12/09 04:10:16;;;;;;;9.03;4.10;;;2.90;94.40;;;;;;4807181;29;20050;-78
2020/12/09 04:12:42;;;;;;;9.77;4.47;;;2.90;94.40;;;;;;4827738;29;20053;-79
2020/12/09 04:15:10;;;;;;;8.10;3.93;;;3.00;94.40;;;;;;4845466;29;20505;-79
2020/12/09 04:17:37;;;;;;;9.87;4.70;;;3.00;94.40;;;;;;4833592;29;20045;-79
2020/12/09 04:20:04;;;;;;;8.47;4.00;;;3.10;94.40;;;;;;4858780;29;20052;-77
2020/12/09 04:22:31;;;;;;;10.07;4.10;;;3.10;94.40;;;;;;4844631;29;20132;-78
2020/12/09 04:24:57;;;;;;;9.50;4.17;;;3.10;94.40;;;;;;4827376;29;20124;-79
2020/12/09 04:27:24;;;;;;;16.73;6.80;;;3.20;94.40;;;;;;4830030;29;20045;-79
2020/12/09 04:29:50;;;;;;;17.00;8.10;;;3.20;94.40;;;;;;4850429;29;20049;-79
2020/12/09 04:32:17;;;;;;;15.87;7.87;;;3.20;94.40;;;;;;4844881;29;20501;-79
2020/12/09 04:34:43;;;;;;;18.03;8.60;;;3.30;94.40;;;;;;4845400;29;20134;-79
2020/12/09 04:37:10;;;;;;;17.33;7.87;;;3.30;94.40;;;;;;4845292;29;20052;-78
2020/12/09 04:39:37;;;;;;;18.97;9.20;;;3.30;94.40;;;;;;4829770;29;20070;-79
2020/12/09 04:42:04;;;;;;;21.67;10.70;;;3.40;94.40;;;;;;4830054;29;20162;-78
2020/12/09 04:44:31;;;;;;;25.30;10.70;;;3.40;94.40;;;;;;4834289;29;20086;-79
2020/12/09 04:47:04;;;;;;;21.13;10.40;;;3.50;94.40;;;;;;4844922;29;20045;-79
2020/12/09 04:49:40;;;;;;;20.35;9.98;;;3.40;94.40;;;;;;4854757;29;20506;-78
2020/12/09 04:52:37;;;;;;;28.60;14.80;;;3.50;94.40;;;;;;4847022;29;20049;-79
2020/12/09 04:55:11;;;;;;;26.33;11.70;;;3.50;94.40;;;;;;4835679;29;20056;-79
2020/12/09 04:57:37;;;;;;;26.30;11.87;;;3.50;94.40;;;;;;4854920;29;20045;-79
2020/12/09 05:00:12;;;;;;;24.77;11.43;;;3.50;94.40;;;;;;4841253;29;20133;-79
2020/12/09 05:02:48;;;;;;;28.73;12.63;;;3.50;94.40;;;;;;4860528;29;20045;-78
2020/12/09 05:05:16;;;;;;;22.40;11.20;;;3.50;94.40;;;;;;4861292;29;20052;-78
2020/12/09 05:07:47;;;;;;;25.37;11.40;;;3.50;94.40;;;;;;4830116;29;20094;-79
2020/12/09 05:10:16;;;;;;;28.10;12.60;;;3.50;94.40;;;;;;4861233;29;20041;-79
2020/12/09 05:12:47;;;;;;;35.80;14.87;;;3.50;94.40;;;;;;4838871;29;20074;-79
2020/12/09 05:15:22;;;;;;;31.03;12.63;;;3.50;94.40;;;;;;4812547;29;20098;-79
2020/12/09 05:18:04;;;;;;;23.53;11.30;;;3.50;94.50;;;;;;4842891;29;20464;-79
2020/12/09 05:20:40;;;;;;;20.73;9.40;;;3.60;94.50;;;;;;4817440;29;20109;-79
2020/12/09 05:23:08;;;;;;;17.83;7.63;;;3.60;94.50;;;;;;4841490;29;20114;-78
2020/12/09 05:25:37;;;;;;;15.33;7.23;;;3.60;94.50;;;;;;4826061;29;20117;-79
2020/12/09 05:28:05;;;;;;;14.57;6.80;;;3.60;94.50;;;;;;4801166;29;20050;-78
2020/12/09 05:30:52;;;;;;;14.77;6.30;;;3.70;94.60;;;;;;4831048;29;20502;-78
2020/12/09 05:33:30;;;;;;;15.83;7.60;;;3.70;94.50;;;;;;4833351;29;20045;-79
2020/12/09 05:36:01;;;;;;;17.53;8.03;;;3.70;94.50;;;;;;4806439;29;20118;-78
2020/12/09 05:38:29;;;;;;;17.60;7.43;;;3.70;94.50;;;;;;4819030;29;20499;-79
2020/12/09 05:40:57;;;;;;;20.80;8.00;;;3.70;94.50;;;;;;4841021;29;20139;-78
2020/12/09 05:43:24;;;;;;;22.87;10.10;;;3.70;94.50;;;;;;4837924;29;20106;-78
2020/12/09 05:45:51;;;;;;;18.87;9.47;;;3.70;94.40;;;;;;4827999;29;20125;-78
2020/12/09 05:48:23;;;;;;;16.33;7.50;;;3.70;94.50;;;;;;4824924;29;20106;-78
2020/12/09 05:51:01;;;;;;;23.92;11.07;;;3.70;94.50;;;;;;4834804;29;20046;-78
2020/12/09 05:53:33;;;;;;;21.67;9.47;;;3.70;94.40;;;;;;4829682;29;20046;-78
2020/12/09 05:56:13;;;;;;;29.67;13.23;;;3.70;94.40;;;;;;4811474;29;20088;-79
2020/12/09 05:58:46;;;;;;;24.57;11.17;;;3.60;94.70;;;;;;4838187;29;20045;-73
2020/12/09 06:01:24;;;;;;;22.40;10.73;;;3.60;94.40;;;;;;4840547;29;20069;-73
2020/12/09 06:03:56;;;;;;;21.23;9.27;;;3.60;94.50;;;;;;4840780;29;20078;-73
2020/12/09 06:06:24;;;;;;;23.37;10.93;;;3.60;94.50;;;;;;4840716;29;20042;-73
2020/12/09 06:09:10;;;;;;;30.67;14.27;;;3.60;94.50;;;;;;4833498;29;20413;-73
2020/12/09 06:11:37;;;;;;;28.77;12.17;;;3.60;94.40;;;;;;4839490;29;20107;-73
2020/12/09 06:14:04;;;;;;;27.67;11.70;;;3.60;94.50;;;;;;4840600;29;20503;-73
2020/12/09 06:16:32;;;;;;;30.57;13.53;;;3.60;94.50;;;;;;4836637;29;20046;-73
2020/12/09 06:18:58;;;;;;;28.00;10.43;;;3.60;94.50;;;;;;4840466;29;20126;-75
2020/12/09 06:21:25;;;;;;;23.83;11.50;;;3.60;94.50;;;;;;4839246;29;20562;-75
2020/12/09 06:23:52;;;;;;;21.67;10.30;;;3.60;94.50;;;;;;4840241;29;20046;-75
2020/12/09 06:26:19;;;;;;;27.27;10.50;;;3.60;94.50;;;;;;4824737;29;20535;-75
2020/12/09 06:28:47;;;;;;;23.03;9.47;;;3.60;94.50;;;;;;4840726;29;20225;-73
2020/12/09 06:31:20;;;;;;;22.23;9.87;;;3.70;94.50;;;;;;4835402;29;20049;-73
2020/12/09 06:33:47;;;;;;;24.00;10.60;;;3.70;94.50;;;;;;4840531;29;20054;-73
2020/12/09 06:36:27;;;;;;;25.27;11.50;;;3.70;94.50;;;;;;4839528;29;20041;-73
2020/12/09 06:39:13;;;;;;;24.57;10.97;;;3.70;94.50;;;;;;4838991;29;20046;-73
2020/12/09 06:41:56;;;;;;;22.13;9.33;;;3.70;94.50;;;;;;4840639;29;20038;-73
2020/12/09 06:44:28;;;;;;;19.85;9.10;;;3.70;94.50;;;;;;4821711;29;20419;-73
2020/12/09 06:46:56;;;;;;;19.70;7.72;;;3.70;94.50;;;;;;4834194;29;20502;-74
2020/12/09 06:49:29;;;;;;;22.20;8.93;;;3.70;94.50;;;;;;4844313;29;20049;-73
2020/12/09 06:51:59;;;;;;;20.75;8.48;;;3.70;94.50;;;;;;4843990;29;20513;-73
2020/12/09 06:54:52;;;;;;;20.37;8.83;;;3.70;94.50;;;;;;4843835;29;20050;-73
2020/12/09 06:57:37;;;;;;;16.83;7.32;;;3.80;94.50;;;;;;4834691;29;20088;-80
2020/12/09 07:00:13;;;;;;;21.10;8.73;;;3.70;94.50;;;;;;4843834;29;20046;-79
2020/12/09 07:02:44;;;;;;;24.63;11.27;;;3.80;94.50;;;;;;4840876;29;20098;-79
2020/12/09 07:05:13;;;;;;;22.53;9.60;;;3.70;94.50;;;;;;4825083;29;20050;-79
2020/12/09 07:07:46;;;;;;;26.17;10.80;;;3.70;94.40;;;;;;4828289;29;20042;-79
2020/12/09 07:10:17;;;;;;;33.97;13.67;;;3.80;94.50;;;;;;4830804;29;20507;-79
2020/12/09 07:13:01;;;;;;;33.53;13.73;;;3.70;94.40;;;;;;4848371;29;20046;-79
2020/12/09 07:15:28;;;;;;;31.70;14.23;;;3.70;94.40;;;;;;4856762;29;20070;-79
2020/12/09 07:17:55;;;;;;;32.20;13.40;;;3.70;94.40;;;;;;4847011;29;20056;-79
2020/12/09 07:20:22;;;;;;;30.93;13.00;;;3.70;94.40;;;;;;4862954;29;20117;-79
2020/12/09 07:22:48;;;;;;;30.30;12.53;;;3.70;94.40;;;;;;4853450;29;20053;-79
2020/12/09 07:25:15;;;;;;;29.77;12.10;;;3.70;94.40;;;;;;4862098;29;20041;-79
2020/12/09 07:27:43;;;;;;;28.70;11.93;;;3.70;94.70;;;;;;4850057;29;20049;-79
2020/12/09 07:30:12;;;;;;;29.30;11.47;;;3.70;94.40;;;;;;4831791;29;20136;-79
2020/12/09 07:32:39;;;;;;;28.80;11.27;;;3.80;94.40;;;;;;4842370;29;20066;-79
2020/12/09 07:35:13;;;;;;;31.83;13.70;;;3.70;94.40;;;;;;4846398;29;20054;-79
2020/12/09 07:37:43;;;;;;;27.53;12.23;;;3.80;94.40;;;;;;4848302;29;20046;-79
2020/12/09 07:40:09;;;;;;;25.87;12.30;;;3.80;94.40;;;;;;4831237;29;20058;-79
2020/12/09 07:42:36;;;;;;;31.37;13.27;;;3.80;94.40;;;;;;4846245;29;20102;-79
2020/12/09 07:45:09;;;;;;;30.53;12.47;;;3.80;94.40;;;;;;4853902;29;20110;-79
2020/12/09 07:47:37;;;;;;;40.70;16.93;;;3.80;94.40;;;;;;4858078;29;20926;-78
2020/12/09 07:50:05;;;;;;;51.63;20.83;;;3.80;94.40;;;;;;4857258;29;20149;-79
2020/12/09 07:52:35;;;;;;;42.27;17.17;;;3.70;94.20;;;;;;4862341;29;20263;-79
2020/12/09 07:55:06;;;;;;;35.60;15.03;;;3.70;94.20;;;;;;4861594;29;20128;-82
2020/12/09 07:57:36;;;;;;;31.53;13.87;;;3.70;94.30;;;;;;4860483;29;20094;-78
2020/12/09 08:00:14;;;;;;;33.77;14.37;;;3.60;94.30;;;;;;4845726;29;20053;-78
2020/12/09 08:02:43;;;;;;;38.47;14.40;;;3.60;94.30;;;;;;4830959;29;20715;-77
2020/12/09 08:05:21;;;;;;;45.40;19.73;;;3.50;94.30;;;;;;4862257;29;20113;-78
2020/12/09 08:07:49;;;;;;;48.47;19.80;;;3.40;94.10;;;;;;4837052;29;20571;-77
2020/12/09 08:10:31;;;;;;;50.77;21.77;;;3.30;94.00;;;;;;4849656;29;20061;-78
2020/12/09 08:13:05;;;;;;;52.77;22.60;;;3.20;94.00;;;;;;4838332;29;20065;-78
2020/12/09 08:15:33;;;;;;;42.90;17.23;;;3.10;94.00;;;;;;4842596;29;20048;-78
2020/12/09 08:18:00;;;;;;;41.43;16.37;;;3.00;94.10;;;;;;4809429;29;20086;-79
2020/12/09 08:20:27;;;;;;;50.43;21.77;;;2.90;94.10;;;;;;4811556;29;20451;-77
2020/12/09 08:23:01;;;;;;;43.57;18.40;;;2.90;94.10;;;;;;4824413;29;20062;-80
2020/12/09 08:25:32;;;;;;;44.40;19.53;;;2.80;94.10;;;;;;4826454;29;20049;-83
2020/12/09 08:28:06;;;;;;;46.40;21.07;;;2.70;94.10;;;;;;4827447;29;20053;-77
2020/12/09 08:30:34;;;;;;;44.30;19.33;;;2.70;94.00;;;;;;4826922;29;20306;-78
2020/12/09 08:33:25;;;;;;;46.27;20.53;;;2.70;94.10;;;;;;4843358;29;20110;-79
2020/12/09 08:35:58;;;;;;;40.50;17.37;;;2.60;94.00;;;;;;4833709;29;20050;-79
2020/12/09 08:38:46;;;;;;;30.77;15.03;;;2.50;94.40;;;;;;4833465;29;20047;-78
2020/12/09 08:41:27;;;;;;;28.20;13.53;;;2.50;94.20;;;;;;4828216;29;20042;-78
2020/12/09 08:43:55;;;;;;;28.33;12.00;;;2.50;94.30;;;;;;4835682;29;20045;-78
2020/12/09 08:46:24;;;;;;;31.40;13.73;;;2.60;94.30;;;;;;4830334;29;20071;-77
2020/12/09 08:48:52;;;;;;;30.30;12.53;;;2.60;94.20;;;;;;4841940;29;20042;-75
2020/12/09 08:51:23;;;;;;;22.20;11.03;;;2.50;94.20;;;;;;4843161;29;20126;-75
2020/12/09 08:53:50;;;;;;;29.80;13.93;;;2.50;94.20;;;;;;4842031;29;20049;-75
2020/12/09 08:56:16;;;;;;;30.83;12.70;;;2.50;94.20;;;;;;4826508;29;20049;-75
2020/12/09 08:58:43;;;;;;;24.97;11.30;;;2.50;94.20;;;;;;4843051;29;20046;-75
2020/12/09 09:01:10;;;;;;;27.57;12.40;;;2.50;94.20;;;;;;4826965;29;20056;-80
2020/12/09 09:03:39;;;;;;;25.27;11.27;;;2.50;94.20;;;;;;4826955;29;20095;-80
2020/12/09 09:06:06;;;;;;;28.93;11.90;;;2.50;94.20;;;;;;4841839;29;20046;-80
2020/12/09 09:08:32;;;;;;;24.60;12.17;;;2.50;94.20;;;;;;4813217;29;20084;-83
2020/12/09 09:10:59;;;;;;;34.43;14.80;;;2.50;94.20;;;;;;4834521;29;20046;-82
2020/12/09 09:13:25;;;;;;;27.03;12.53;;;2.50;94.10;;;;;;4826627;29;20046;-80
2020/12/09 09:15:52;;;;;;;31.27;14.13;;;2.50;94.10;;;;;;4799392;29;20499;-83
2020/12/09 09:18:18;;;;;;;27.83;13.43;;;2.50;94.10;;;;;;4826576;29;20046;-82
2020/12/09 09:20:45;;;;;;;31.90;13.83;;;2.50;94.10;;;;;;4826378;29;20050;-82
2020/12/09 09:23:12;;;;;;;23.93;11.03;;;2.50;94.10;;;;;;4796505;29;20053;-82
2020/12/09 09:25:38;;;;;;;22.60;10.20;;;2.50;94.20;;;;;;4823882;29;20113;-82
2020/12/09 09:28:06;;;;;;;21.33;9.30;;;2.60;94.20;;;;;;4797695;29;20070;-81
2020/12/09 09:30:32;;;;;;;27.57;12.03;;;2.60;94.30;;;;;;4834131;29;20046;-83
2020/12/09 09:32:59;;;;;;;25.97;11.27;;;2.70;94.20;;;;;;4828803;29;20045;-80
2020/12/09 09:35:28;;;;;;;22.77;9.53;;;2.70;94.20;;;;;;4842275;29;20049;-85
2020/12/09 09:37:54;;;;;;;27.73;13.00;;;2.70;94.20;;;;;;4822235;29;20062;-80
2020/12/09 09:40:21;;;;;;;25.40;12.27;;;2.70;94.10;;;;;;4833655;29;20053;-81
2020/12/09 09:42:54;;;;;;;31.15;14.25;;;2.70;94.10;;;;;;4842340;29;20046;-84
2020/12/09 09:45:23;;;;;;;23.93;11.03;;;2.70;94.10;;;;;;4826465;29;20042;-79
2020/12/09 09:47:49;;;;;;;27.33;12.83;;;2.60;94.10;;;;;;4813246;29;20046;-85
2020/12/09 09:50:16;;;;;;;23.37;10.57;;;2.60;94.10;;;;;;4816203;29;20054;-80
2020/12/09 09:52:42;;;;;;;21.43;9.53;;;2.70;94.20;;;;;;4804632;29;20046;-80
2020/12/09 09:55:09;;;;;;;20.07;9.50;;;2.70;94.20;;;;;;4842574;29;20079;-80
2020/12/09 09:57:36;;;;;;;27.23;13.40;;;2.70;94.10;;;;;;4825871;29;20057;-80
2020/12/09 10:00:06;;;;;;;28.33;12.60;;;2.70;94.10;;;;;;4825562;29;20077;-76
2020/12/09 10:02:38;;;;;;;25.33;12.20;;;2.70;94.00;;;;;;4840331;29;20038;-75
2020/12/09 10:05:04;;;;;;;32.07;15.40;;;2.60;94.00;;;;;;4824149;29;20049;-76
2020/12/09 10:07:30;;;;;;;28.87;13.40;;;2.60;93.90;;;;;;4841827;29;20472;-82
2020/12/09 10:10:01;;;;;;;28.30;12.97;;;2.60;93.90;;;;;;4810444;29;20090;-82
2020/12/09 10:12:30;;;;;;;37.10;17.67;;;2.60;94.00;;;;;;4825580;29;20479;-78
2020/12/09 10:14:57;;;;;;;34.37;15.67;;;2.50;93.80;;;;;;4826006;29;20052;-83
2020/12/09 10:17:24;;;;;;;27.93;13.57;;;2.50;93.90;;;;;;4842007;29;20136;-78
2020/12/09 10:19:53;;;;;;;39.93;17.80;;;2.40;93.90;;;;;;4819581;29;20110;-72
2020/12/09 10:22:21;;;;;;;31.00;15.00;;;2.40;93.80;;;;;;4807223;29;20102;-74
2020/12/09 10:24:48;;;;;;;31.63;14.40;;;2.40;93.80;;;;;;4824138;29;20098;-74
2020/12/09 10:27:15;;;;;;;20.63;9.73;;;2.40;94.00;;;;;;4841127;29;20057;-75
2020/12/09 10:29:42;;;;;;;21.73;9.93;;;2.50;94.10;;;;;;4840030;29;20144;-74
2020/12/09 10:32:09;;;;;;;22.10;9.93;;;2.50;94.10;;;;;;4841091;29;20128;-74
2020/12/09 10:34:38;;;;;;;18.00;8.80;;;2.60;94.10;;;;;;4828137;29;20046;-73
2020/12/09 10:37:04;;;;;;;24.93;10.67;;;2.70;94.10;;;;;;4840938;29;20129;-72
2020/12/09 10:39:31;;;;;;;20.77;10.10;;;2.70;94.10;;;;;;4841049;29;20454;-72
2020/12/09 10:41:58;;;;;;;23.40;10.57;;;2.70;94.00;;;;;;4839024;29;20056;-72
2020/12/09 10:44:25;;;;;;;21.77;9.80;;;2.80;94.10;;;;;;4840843;29;20081;-72
2020/12/09 10:46:51;;;;;;;23.63;10.10;;;2.80;94.10;;;;;;4840127;29;20057;-72
2020/12/09 10:49:18;;;;;;;20.30;9.00;;;2.80;94.10;;;;;;4841034;29;20057;-79
2020/12/09 10:51:46;;;;;;;16.60;7.70;;;2.80;94.10;;;;;;4837986;29;20038;-78
2020/12/09 10:54:14;;;;;;;32.70;14.80;;;2.80;94.10;;;;;;4842163;29;20189;-77
2020/12/09 10:56:40;;;;;;;27.33;11.83;;;2.80;94.00;;;;;;4827438;29;20455;-78
2020/12/09 10:59:07;;;;;;;26.70;11.83;;;2.70;93.90;;;;;;4807228;29;20053;-77
2020/12/09 11:01:33;;;;;;;24.90;11.70;;;2.70;94.00;;;;;;4839016;29;20461;-80
2020/12/09 11:04:01;;;;;;;21.23;9.63;;;2.70;94.00;;;;;;4812082;29;20066;-79
2020/12/09 11:06:46;;;;;;;28.80;14.23;;;2.70;94.00;;;;;;4824222;29;20061;-83
2020/12/09 11:09:13;;;;;;;29.63;13.80;;;2.70;93.90;;;;;;4823822;29;20132;-79
2020/12/09 11:11:46;;;;;;;27.50;13.40;;;2.70;93.90;;;;;;4832340;29;20443;-79
2020/12/09 11:14:13;;;;;;;;;;;2.60;93.90;;;;;;4841551;29;20050;-79
2020/12/09 11:16:41;;;;;;;35.43;15.50;;;2.60;93.90;;;;;;4853745;29;19980;-81
2020/12/09 11:19:08;;;;;;;33.60;16.07;;;2.60;93.80;;;;;;4843733;29;20108;-79
2020/12/09 11:21:37;;;;;;;31.80;14.70;;;2.50;93.70;;;;;;4848909;29;20073;-80
2020/12/09 11:24:04;;;;;;;32.67;14.80;;;2.50;93.70;;;;;;4860379;29;20120;-78
2020/12/09 11:26:38;;;;;;;24.90;12.17;;;2.50;93.80;;;;;;4827322;29;20053;-82
2020/12/09 11:29:07;;;;;;;20.83;9.20;;;2.50;93.90;;;;;;4829228;29;20510;-79
2020/12/09 11:31:37;;;;;;;19.17;9.17;;;2.60;93.90;;;;;;4843827;29;20044;-80
2020/12/09 11:34:05;;;;;;;23.83;10.10;;;2.60;94.00;;;;;;4810865;29;20073;-75
2020/12/09 11:36:32;;;;;;;26.50;11.47;;;2.60;93.90;;;;;;4858099;29;20044;-74
2020/12/09 11:38:59;;;;;;;21.83;9.90;;;2.60;93.90;;;;;;4858444;29;20490;-76
2020/12/09 11:41:26;;;;;;;26.97;11.70;;;2.50;93.90;;;;;;4842404;29;20060;-83
2020/12/09 11:43:57;;;;;;;26.37;12.90;;;2.50;93.80;;;;;;4843776;29;20056;-83
2020/12/09 11:46:30;;;;;;;24.80;10.73;;;2.50;93.80;;;;;;4846373;29;20045;-82
2020/12/09 11:48:57;;;;;;;23.50;9.90;;;2.40;93.80;;;;;;4844571;29;20049;-82
2020/12/09 11:51:24;;;;;;;23.70;10.27;;;2.40;93.90;;;;;;4841997;29;20072;-84
2020/12/09 11:53:51;;;;;;;22.23;9.47;;;2.50;93.90;;;;;;4837503;29;20045;-78
2020/12/09 11:56:28;;;;;;;30.40;11.33;;;2.50;94.20;;;;;;4833409;29;20069;-80
2020/12/09 11:58:55;;;;;;;23.20;10.23;;;2.50;94.20;;;;;;4845721;29;20053;-79
2020/12/09 12:01:23;;;;;;;27.40;9.57;;;2.50;93.90;;;;;;4860366;29;20057;-79
2020/12/09 12:03:49;;;;;;;26.53;10.60;;;2.50;94.00;;;;;;4845400;29;20045;-77
2020/12/09 12:06:27;;;;;;;25.23;10.63;;;2.50;94.00;;;;;;4849469;29;20132;-74
2020/12/09 12:08:55;;;;;;;30.20;11.23;;;2.50;93.90;;;;;;4845678;29;20447;-78
2020/12/09 12:11:23;;;;;;;27.13;9.87;;;2.50;93.90;;;;;;4861784;29;20078;-77
2020/12/09 12:13:51;;;;;;;22.70;8.50;;;2.50;93.90;;;;;;4830882;29;20062;-79
2020/12/09 12:16:23;;;;;;;24.87;9.87;;;2.50;93.90;;;;;;4826883;29;20049;-80
2020/12/09 12:18:51;;;;;;;23.65;9.38;;;2.50;94.00;;;;;;4830781;29;20117;-77
2020/12/09 12:21:19;;;;;;;24.93;11.20;;;2.60;94.00;;;;;;4826748;29;20054;-77
2020/12/09 12:23:46;;;;;;;29.90;11.10;;;2.60;93.90;;;;;;4843094;29;20125;-80
2020/12/09 12:26:20;;;;;;;24.83;9.23;;;2.60;93.90;;;;;;4811880;29;20046;-78
2020/12/09 12:28:49;;;;;;;18.33;6.77;;;2.70;94.00;;;;;;4826676;29;20045;-84
2020/12/09 12:31:18;;;;;;;24.03;8.43;;;2.80;94.00;;;;;;4842011;29;20087;-79
2020/12/09 12:33:45;;;;;;;21.30;8.23;;;2.80;93.90;;;;;;4826933;29;20114;-80
2020/12/09 12:36:12;;;;;;;27.57;9.27;;;2.90;93.90;;;;;;4843117;29;20038;-78
2020/12/09 12:38:39;;;;;;;25.03;9.40;;;2.90;93.80;;;;;;4811505;29;20073;-78
2020/12/09 12:41:07;;;;;;;23.90;9.13;;;2.90;93.80;;;;;;4823347;29;20050;-78
2020/12/09 12:43:38;;;;;;;22.17;8.13;;;3.00;93.80;;;;;;4832548;29;20053;-83
2020/12/09 12:46:05;;;;;;;19.50;7.80;;;3.00;93.80;;;;;;4810761;29;20049;-77
2020/12/09 12:48:31;;;;;;;25.77;10.07;;;3.00;93.80;;;;;;4826598;29;20034;-76
2020/12/09 12:50:58;;;;;;;30.13;10.83;;;3.00;93.80;;;;;;4809976;29;20103;-76
2020/12/09 12:53:24;;;;;;;27.97;10.50;;;3.00;93.80;;;;;;4826493;29;20062;-76
2020/12/09 12:55:51;;;;;;;36.87;12.97;;;3.00;93.80;;;;;;4826774;29;20407;-77
2020/12/09 12:58:17;;;;;;;29.03;11.30;;;3.00;93.80;;;;;;4813489;29;20106;-76